地図

経路データ

SID SEASON NUMBER BASIN SUBBASIN NAME ISO_TIME NATURE LAT LON WMO_WIND WMO_PRES WMO_AGENCY TRACK_TYPE DIST2LAND LANDFALL IFLAG USA_AGENCY USA_ATCF_ID USA_LAT USA_LON USA_RECORD USA_STATUS USA_WIND USA_PRES USA_SSHS USA_R34_NE USA_R34_SE USA_R34_SW USA_R34_NW USA_R50_NE USA_R50_SE USA_R50_SW USA_R50_NW USA_R64_NE USA_R64_SE USA_R64_SW USA_R64_NW USA_POCI USA_ROCI USA_RMW USA_EYE TOKYO_LAT TOKYO_LON TOKYO_GRADE TOKYO_WIND TOKYO_PRES TOKYO_R50_DIR TOKYO_R50_LONG TOKYO_R50_SHORT TOKYO_R30_DIR TOKYO_R30_LONG TOKYO_R30_SHORT TOKYO_LAND CMA_LAT CMA_LON CMA_CAT CMA_WIND CMA_PRES HKO_LAT HKO_LON HKO_CAT HKO_WIND HKO_PRES NEWDELHI_LAT NEWDELHI_LON NEWDELHI_GRADE NEWDELHI_WIND NEWDELHI_PRES NEWDELHI_CI NEWDELHI_DP NEWDELHI_POCI REUNION_LAT REUNION_LON REUNION_TYPE REUNION_WIND REUNION_PRES REUNION_TNUM REUNION_CI REUNION_RMW REUNION_R34_NE REUNION_R34_SE REUNION_R34_SW REUNION_R34_NW REUNION_R50_NE REUNION_R50_SE REUNION_R50_SW REUNION_R50_NW REUNION_R64_NE REUNION_R64_SE REUNION_R64_SW REUNION_R64_NW BOM_LAT BOM_LON BOM_TYPE BOM_WIND BOM_PRES BOM_TNUM BOM_CI BOM_RMW BOM_R34_NE BOM_R34_SE BOM_R34_SW BOM_R34_NW BOM_R50_NE BOM_R50_SE BOM_R50_SW BOM_R50_NW BOM_R64_NE BOM_R64_SE BOM_R64_SW BOM_R64_NW BOM_ROCI BOM_POCI BOM_EYE BOM_POS_METHOD BOM_PRES_METHOD NADI_LAT NADI_LON NADI_CAT NADI_WIND NADI_PRES WELLINGTON_LAT WELLINGTON_LON WELLINGTON_WIND WELLINGTON_PRES DS824_LAT DS824_LON DS824_STAGE DS824_WIND DS824_PRES TD9636_LAT TD9636_LON TD9636_STAGE TD9636_WIND TD9636_PRES TD9635_LAT TD9635_LON TD9635_WIND TD9635_PRES TD9635_ROCI NEUMANN_LAT NEUMANN_LON NEUMANN_CLASS NEUMANN_WIND NEUMANN_PRES MLC_LAT MLC_LON MLC_CLASS MLC_WIND MLC_PRES USA_GUST BOM_GUST BOM_GUST_PER REUNION_GUST REUNION_GUST_PER USA_SEAHGT USA_SEARAD_NE USA_SEARAD_SE USA_SEARAD_SW USA_SEARAD_NW STORM_SPEED STORM_DIR
2016253N26152 2016 62 WP MM NOT_NAMED 2016-09-09 06:00:00 NR 26.3000 151.900 main 1477 1402 O_____________ jtwc_wp WP172016 26.3000 151.900 DB 20 1007 -3 14 329
2016253N26152 2016 62 WP MM NOT_NAMED 2016-09-09 09:00:00 NR 26.9077 151.493 main 1402 1319 P_____________ WP172016 26.9077 151.493 DB 20 1007 -3 15 331
2016253N26152 2016 62 WP MM NOT_NAMED 2016-09-09 12:00:00 NR 27.6000 151.100 main 1319 1235 O_____________ jtwc_wp WP172016 27.6000 151.100 DB 20 1007 -3 17 337
2016253N26152 2016 62 WP MM NOT_NAMED 2016-09-09 15:00:00 NR 28.4275 150.748 main 1228 1146 P_____________ WP172016 28.4275 150.748 DB 20 1007 -3 18 343
2016253N26152 2016 62 WP MM NOT_NAMED 2016-09-09 18:00:00 NR 29.3000 150.500 main 1146 1089 O_____________ jtwc_wp WP172016 29.3000 150.500 DB 20 1007 -3 17 351
2016253N26152 2016 62 WP MM NOT_NAMED 2016-09-09 21:00:00 NR 30.0773 150.441 main 1082 1036 P_____________ WP172016 30.0773 150.441 DB 20 1007 -3 16 357
2016253N26152 2016 62 WP MM NOT_NAMED 2016-09-10 00:00:00 NR 30.9000 150.400 main 1030 947 O_____________ jtwc_wp WP172016 30.9000 150.400 DB 20 1007 -3 19 351
2016253N26152 2016 62 WP MM NOT_NAMED 2016-09-10 03:00:00 NR 31.9377 150.108 main 947 881 P_____________ WP172016 31.9377 150.108 DB 22 1005 -3 21 348
2016253N26152 2016 62 WP MM NOT_NAMED 2016-09-10 06:00:00 TS 32.9000 149.900 main 881 864 O_____________ jtwc_wp WP172016 32.9000 149.900 TD 25 1004 -1 16 358
2016253N26152 2016 62 WP MM NOT_NAMED 2016-09-10 09:00:00 TS 33.5473 150.044 main 866 866 P_____________ WP172016 33.5473 150.044 TD 25 1004 -1 12 21
2016253N26152 2016 62 WP MM NOT_NAMED 2016-09-10 12:00:00 TS 34.0000 150.400 main 885 885 O_____________ jtwc_wp WP172016 34.0000 150.400 TD 25 1004 -1 10 37
2016253N26152 2016 62 WP MM NOT_NAMED 2016-09-10 15:00:00 TS 34.3722 150.791 main 910 910 P_____________ WP172016 34.3722 150.791 TD 27 1002 -1 10 47
2016253N26152 2016 62 WP MM NOT_NAMED 2016-09-10 18:00:00 TS 34.7000 151.300 main 948 948 O_____________ jtwc_wp WP172016 34.7000 151.300 TD 30 1000 -1 1007 150 40 11 51
2016253N26152 2016 62 WP MM NOT_NAMED 2016-09-10 21:00:00 TS 35.0912 151.854 main 990 990 P_____________ WP172016 35.0912 151.854 TD 32 998 -1 1006 150 40 13 53
2016253N26152 2016 62 WP MM NOT_NAMED 2016-09-11 00:00:00 TS 35.5000 152.600 main 1024 1024 O_____________ jtwc_wp WP172016 35.5000 152.600 TS 35 996 0 10 40 40 10 1006 150 40 16 61
2016253N26152 2016 62 WP MM NOT_NAMED 2016-09-11 03:00:00 TS 35.9002 153.618 main 1066 1066 P_____________ WP172016 35.9002 153.618 TS 35 996 0 20 40 40 20 1010 125 40 20 66
2016253N26152 2016 62 WP MM NOT_NAMED 2016-09-11 06:00:00 TS 36.3000 154.800 main 1102 1102 O_____________ jtwc_wp WP172016 36.3000 154.800 TS 35 996 0 30 40 40 30 1014 100 40 20 67
2016253N26152 2016 62 WP MM NOT_NAMED 2016-09-11 09:00:00 TS 36.7053 155.941 main 1116 1114 P_____________ WP172016 36.7053 155.941 TS 32 998 -1 1014 100 40 21 67
2016253N26152 2016 62 WP MM NOT_NAMED 2016-09-11 12:00:00 TS 37.1000 157.200 main 1131 1131 O_____________ jtwc_wp WP172016 37.1000 157.200 TD 30 1000 -1 1014 100 40 23 70
2016253N26152 2016 62 WP MM NOT_NAMED 2016-09-11 15:00:00 TS 37.4626 158.604 main 1163 1163 P_____________ WP172016 37.4626 158.604 TD 30 1000 -1 1014 100 40 25 74
2016253N26152 2016 62 WP MM NOT_NAMED 2016-09-11 18:00:00 TS 37.8000 160.200 main 1222 1222 O_____________ jtwc_wp WP172016 37.8000 160.200 TD 30 1000 -1 1014 100 40 27 76
2016253N26152 2016 62 WP MM NOT_NAMED 2016-09-11 21:00:00 TS 38.1058 161.977 main 1300 1300 P_____________ WP172016 38.1058 161.977 TD 30 1001 -1 1014 125 40 30 78
2016253N26152 2016 62 WP MM NOT_NAMED 2016-09-12 00:00:00 ET 38.4000 163.900 main 1396 1396 O_____________ jtwc_wp WP172016 38.4000 163.900 EX 30 1002 -4 1014 150 40 31 79
2016253N26152 2016 62 WP MM NOT_NAMED 2016-09-12 03:00:00 ET 38.7039 165.884 main 1500 1500 P_____________ WP172016 38.7039 165.884 EX 30 1002 -4 1014 150 40 32 79
2016253N26152 2016 62 WP MM NOT_NAMED 2016-09-12 06:00:00 ET 39.0000 167.900 main 1559 O_____________ jtwc_wp WP172016 39.0000 167.900 EX 30 1002 -4 1014 150 40 32 79

デジタル台風データ・検索

IBTrACS Databaseについて

本データベースは、米国NOAAが公開する1842年以降の世界の熱帯低気圧のベストトラックデータアーカイブInternational Best Track Archive for Climate Stewardship (IBTrACS)を、ウェブで閲覧しやすい形式に変換したものです。

最終更新日:2021-10-21